Bono, Arkansas
Current Conditions -  °F | °C
As of 5:53 AM on Sunday 25 Jan 2015 (Local Time) from KJBR Reporting Station
Clear Clear  
Wind Chill: 36°   Ceiling: Unl
Heat Index: 41°   Visibility: 10mi
Dew Point: 35°   Wind: 7mph
Humidity: 79%   Direction: 220°SW
Pressure: 29.73"   Gusts: NA
Location:  35.91°N, 90.8°W
Report Text: KJBR 251153Z AUTO 22006KT 10SM CLR 05/02 A2973 RMK AO2 SLP068 T00500017 10056 20033 56021
Loading
Personal Weather Stations






























Interactive Weather Map New forecast layout! Learn more

10-Day Weather Forecast

Advertisements
Track Severe Weather on mobile